sensor_id;sensor_type;location;lat;lon;timestamp;pressure;altitude;pressure_sealevel;temperature;humidity
73284;BME280;61519;60.050;18.582;2023-10-19T00:00:54;101602.13;;;4.81;56.93
73284;BME280;61519;60.050;18.582;2023-10-19T00:03:23;101595.22;;;4.80;56.91
73284;BME280;61519;60.050;18.582;2023-10-19T00:05:49;101596.19;;;4.79;56.94
73284;BME280;61519;60.050;18.582;2023-10-19T00:08:15;101580.03;;;4.63;56.90
73284;BME280;61519;60.050;18.582;2023-10-19T00:10:50;101604.75;;;4.81;57.12
73284;BME280;61519;60.050;18.582;2023-10-19T00:13:33;101605.69;;;4.80;57.16
73284;BME280;61519;60.050;18.582;2023-10-19T00:16:01;101604.50;;;4.84;57.30
73284;BME280;61519;60.050;18.582;2023-10-19T00:18:35;101596.66;;;4.73;57.21
73284;BME280;61519;60.050;18.582;2023-10-19T00:21:01;101619.25;;;4.85;57.35
73284;BME280;61519;60.050;18.582;2023-10-19T00:23:46;101614.94;;;4.84;57.05
73284;BME280;61519;60.050;18.582;2023-10-19T00:26:16;101632.66;;;4.80;57.33
73284;BME280;61519;60.050;18.582;2023-10-19T00:28:48;101627.56;;;4.79;57.81
73284;BME280;61519;60.050;18.582;2023-10-19T00:31:18;101621.63;;;4.66;57.91
73284;BME280;61519;60.050;18.582;2023-10-19T00:33:45;101632.28;;;4.63;58.04
73284;BME280;61519;60.050;18.582;2023-10-19T00:36:11;101648.69;;;4.65;58.00
73284;BME280;61519;60.050;18.582;2023-10-19T00:38:41;101630.84;;;4.59;58.20
73284;BME280;61519;60.050;18.582;2023-10-19T00:41:20;101636.09;;;4.59;58.52
73284;BME280;61519;60.050;18.582;2023-10-19T00:43:57;101641.56;;;4.56;58.46
73284;BME280;61519;60.050;18.582;2023-10-19T00:46:27;101599.72;;;4.33;58.61
73284;BME280;61519;60.050;18.582;2023-10-19T00:49:12;101636.78;;;4.50;58.43
73284;BME280;61519;60.050;18.582;2023-10-19T00:51:42;101632.63;;;4.47;58.71
73284;BME280;61519;60.050;18.582;2023-10-19T00:54:28;101616.31;;;4.32;58.63
73284;BME280;61519;60.050;18.582;2023-10-19T00:57:17;101611.09;;;4.32;58.63
73284;BME280;61519;60.050;18.582;2023-10-19T00:59:46;101627.50;;;4.34;58.51
73284;BME280;61519;60.050;18.582;2023-10-19T01:02:18;101617.28;;;4.31;58.70
73284;BME280;61519;60.050;18.582;2023-10-19T01:04:51;101616.81;;;4.26;58.69
73284;BME280;61519;60.050;18.582;2023-10-19T01:07:32;101598.03;;;4.10;58.71
73284;BME280;61519;60.050;18.582;2023-10-19T01:10:03;101594.31;;;4.02;58.53
73284;BME280;61519;60.050;18.582;2023-10-19T01:12:31;101607.69;;;3.97;58.55
73284;BME280;61519;60.050;18.582;2023-10-19T01:15:09;101628.84;;;4.05;58.52
73284;BME280;61519;60.050;18.582;2023-10-19T01:17:58;101637.63;;;4.04;58.71
73284;BME280;61519;60.050;18.582;2023-10-19T01:20:25;101618.53;;;4.04;58.71
73284;BME280;61519;60.050;18.582;2023-10-19T01:23:04;101624.59;;;4.04;58.67
73284;BME280;61519;60.050;18.582;2023-10-19T01:25:54;101608.81;;;4.06;58.55
73284;BME280;61519;60.050;18.582;2023-10-19T01:28:24;101618.06;;;4.10;58.96
73284;BME280;61519;60.050;18.582;2023-10-19T01:31:08;101611.06;;;4.10;58.94
73284;BME280;61519;60.050;18.582;2023-10-19T01:33:39;101604.91;;;4.11;58.75
73284;BME280;61519;60.050;18.582;2023-10-19T01:36:05;101601.56;;;4.09;58.59
73284;BME280;61519;60.050;18.582;2023-10-19T01:38:40;101612.13;;;4.08;58.56
73284;BME280;61519;60.050;18.582;2023-10-19T01:41:08;101610.81;;;4.02;58.74
73284;BME280;61519;60.050;18.582;2023-10-19T01:43:54;101608.16;;;3.91;58.49
73284;BME280;61519;60.050;18.582;2023-10-19T01:46:22;101580.13;;;3.71;58.63
73284;BME280;61519;60.050;18.582;2023-10-19T01:48:54;101590.75;;;3.68;58.74
73284;BME280;61519;60.050;18.582;2023-10-19T01:51:22;101562.69;;;3.48;58.90
73284;BME280;61519;60.050;18.582;2023-10-19T01:53:48;101602.88;;;3.69;58.97
73284;BME280;61519;60.050;18.582;2023-10-19T01:56:15;101597.97;;;3.65;58.52
73284;BME280;61519;60.050;18.582;2023-10-19T01:58:45;101600.72;;;3.63;58.97
73284;BME280;61519;60.050;18.582;2023-10-19T02:01:15;101601.63;;;3.62;58.93
73284;BME280;61519;60.050;18.582;2023-10-19T02:04:03;101592.28;;;3.60;58.88
73284;BME280;61519;60.050;18.582;2023-10-19T02:06:30;101591.66;;;3.56;58.90
73284;BME280;61519;60.050;18.582;2023-10-19T02:09:02;101568.59;;;3.39;58.93
73284;BME280;61519;60.050;18.582;2023-10-19T02:11:57;101555.72;;;3.25;59.00
73284;BME280;61519;60.050;18.582;2023-10-19T02:14:23;101582.34;;;3.41;59.10
73284;BME280;61519;60.050;18.582;2023-10-19T02:16:55;101566.66;;;3.30;59.21
73284;BME280;61519;60.050;18.582;2023-10-19T02:19:26;101570.88;;;3.43;59.03
73284;BME280;61519;60.050;18.582;2023-10-19T02:21:53;101588.69;;;3.49;59.28
73284;BME280;61519;60.050;18.582;2023-10-19T02:24:19;101558.72;;;3.31;59.25
73284;BME280;61519;60.050;18.582;2023-10-19T02:26:47;101593.97;;;3.48;59.13
73284;BME280;61519;60.050;18.582;2023-10-19T02:29:13;101569.25;;;3.30;59.34
73284;BME280;61519;60.050;18.582;2023-10-19T02:31:42;101557.09;;;3.18;59.13
73284;BME280;61519;60.050;18.582;2023-10-19T02:34:09;101596.78;;;3.34;59.41
73284;BME280;61519;60.050;18.582;2023-10-19T02:36:36;101577.00;;;3.19;59.26
73284;BME280;61519;60.050;18.582;2023-10-19T02:39:13;101593.97;;;3.24;59.41
73284;BME280;61519;60.050;18.582;2023-10-19T02:41:41;101577.44;;;3.13;59.31
73284;BME280;61519;60.050;18.582;2023-10-19T02:44:25;101572.28;;;3.00;59.41
73284;BME280;61519;60.050;18.582;2023-10-19T02:46:55;101572.47;;;2.97;59.25
73284;BME280;61519;60.050;18.582;2023-10-19T02:49:34;101590.41;;;3.02;59.39
73284;BME280;61519;60.050;18.582;2023-10-19T02:52:03;101589.19;;;2.95;59.23
73284;BME280;61519;60.050;18.582;2023-10-19T02:54:29;101573.44;;;2.84;59.38
73284;BME280;61519;60.050;18.582;2023-10-19T02:56:58;101593.75;;;2.91;59.64
73284;BME280;61519;60.050;18.582;2023-10-19T02:59:25;101579.19;;;2.89;59.38
73284;BME280;61519;60.050;18.582;2023-10-19T03:01:51;101573.34;;;2.85;59.49
73284;BME280;61519;60.050;18.582;2023-10-19T03:04:18;101576.28;;;2.81;59.59
73284;BME280;61519;60.050;18.582;2023-10-19T03:06:43;101565.47;;;2.74;59.60
73284;BME280;61519;60.050;18.582;2023-10-19T03:09:09;101564.84;;;2.71;59.67
73284;BME280;61519;60.050;18.582;2023-10-19T03:11:47;101553.81;;;2.67;59.71
73284;BME280;61519;60.050;18.582;2023-10-19T03:14:17;101572.53;;;2.72;59.92
73284;BME280;61519;60.050;18.582;2023-10-19T03:16:43;101562.34;;;2.69;59.83
73284;BME280;61519;60.050;18.582;2023-10-19T03:19:09;101566.91;;;2.65;59.96
73284;BME280;61519;60.050;18.582;2023-10-19T03:21:35;101565.03;;;2.67;59.87
73284;BME280;61519;60.050;18.582;2023-10-19T03:24:12;101550.25;;;2.68;60.36
73284;BME280;61519;60.050;18.582;2023-10-19T03:26:39;101521.31;;;2.60;60.20
73284;BME280;61519;60.050;18.582;2023-10-19T03:29:14;101522.66;;;2.65;59.97
73284;BME280;61519;60.050;18.582;2023-10-19T03:31:41;101541.69;;;2.79;60.05
73284;BME280;61519;60.050;18.582;2023-10-19T03:34:10;101533.06;;;2.65;60.34
73284;BME280;61519;60.050;18.582;2023-10-19T03:36:37;101554.00;;;2.77;60.07
73284;BME280;61519;60.050;18.582;2023-10-19T03:39:03;101539.94;;;2.66;60.21
73284;BME280;61519;60.050;18.582;2023-10-19T03:41:39;101522.56;;;2.54;60.12
73284;BME280;61519;60.050;18.582;2023-10-19T03:44:10;101544.94;;;2.69;60.43
73284;BME280;61519;60.050;18.582;2023-10-19T03:46:44;101559.41;;;2.74;60.37
73284;BME280;61519;60.050;18.582;2023-10-19T03:49:21;101537.78;;;2.60;60.33
73284;BME280;61519;60.050;18.582;2023-10-19T03:51:47;101563.47;;;2.78;60.29
73284;BME280;61519;60.050;18.582;2023-10-19T03:54:36;101555.66;;;2.78;60.56
73284;BME280;61519;60.050;18.582;2023-10-19T03:57:09;101531.63;;;2.61;60.54
73284;BME280;61519;60.050;18.582;2023-10-19T03:59:40;101542.31;;;2.69;60.62
73284;BME280;61519;60.050;18.582;2023-10-19T04:02:09;101553.38;;;2.73;60.72
73284;BME280;61519;60.050;18.582;2023-10-19T04:04:37;101542.03;;;2.61;60.33
73284;BME280;61519;60.050;18.582;2023-10-19T04:07:04;101548.19;;;2.60;60.42
73284;BME280;61519;60.050;18.582;2023-10-19T04:09:36;101541.94;;;2.63;60.85
73284;BME280;61519;60.050;18.582;2023-10-19T04:12:16;101543.91;;;2.72;60.70
73284;BME280;61519;60.050;18.582;2023-10-19T04:14:42;101525.06;;;2.68;60.91
73284;BME280;61519;60.050;18.582;2023-10-19T04:17:07;101530.75;;;2.74;60.90
73284;BME280;61519;60.050;18.582;2023-10-19T04:19:37;101515.91;;;2.63;60.81
73284;BME280;61519;60.050;18.582;2023-10-19T04:22:03;101521.72;;;2.66;61.14
73284;BME280;61519;60.050;18.582;2023-10-19T04:24:29;101517.97;;;2.71;60.86
73284;BME280;61519;60.050;18.582;2023-10-19T04:26:58;101519.00;;;2.68;60.96
73284;BME280;61519;60.050;18.582;2023-10-19T04:29:24;101521.06;;;2.76;61.05
73284;BME280;61519;60.050;18.582;2023-10-19T04:31:52;101532.78;;;2.94;61.05
73284;BME280;61519;60.050;18.582;2023-10-19T04:34:21;101531.13;;;2.93;60.99
73284;BME280;61519;60.050;18.582;2023-10-19T04:36:48;101535.78;;;3.00;60.96
73284;BME280;61519;60.050;18.582;2023-10-19T04:39:13;101505.00;;;2.82;61.19
73284;BME280;61519;60.050;18.582;2023-10-19T04:41:42;101524.78;;;2.97;61.45
73284;BME280;61519;60.050;18.582;2023-10-19T04:44:07;101505.84;;;2.82;60.90
73284;BME280;61519;60.050;18.582;2023-10-19T04:46:36;101537.44;;;3.01;61.28
73284;BME280;61519;60.050;18.582;2023-10-19T04:49:02;101536.84;;;2.98;61.14
73284;BME280;61519;60.050;18.582;2023-10-19T04:51:28;101553.25;;;3.11;61.05
73284;BME280;61519;60.050;18.582;2023-10-19T04:53:54;101524.03;;;2.95;60.95
73284;BME280;61519;60.050;18.582;2023-10-19T04:56:20;101538.56;;;3.10;61.07
73284;BME280;61519;60.050;18.582;2023-10-19T04:58:46;101537.09;;;3.18;61.00
73284;BME280;61519;60.050;18.582;2023-10-19T05:01:12;101545.28;;;3.25;60.85
73284;BME280;61519;60.050;18.582;2023-10-19T05:03:38;101547.44;;;3.31;61.06
73284;BME280;61519;60.050;18.582;2023-10-19T05:06:03;101524.94;;;3.30;61.22
73284;BME280;61519;60.050;18.582;2023-10-19T05:08:29;101530.44;;;3.38;60.97
73284;BME280;61519;60.050;18.582;2023-10-19T05:10:58;101507.13;;;3.24;60.88
73284;BME280;61519;60.050;18.582;2023-10-19T05:13:25;101540.28;;;3.45;61.37
73284;BME280;61519;60.050;18.582;2023-10-19T05:15:51;101516.66;;;3.36;61.29
73284;BME280;61519;60.050;18.582;2023-10-19T05:18:18;101536.28;;;3.52;61.27
73284;BME280;61519;60.050;18.582;2023-10-19T05:20:44;101520.97;;;3.48;61.18
73284;BME280;61519;60.050;18.582;2023-10-19T05:23:11;101508.28;;;3.43;61.13
73284;BME280;61519;60.050;18.582;2023-10-19T05:25:38;101523.63;;;3.59;60.96
73284;BME280;61519;60.050;18.582;2023-10-19T05:28:05;101519.56;;;3.55;61.25
73284;BME280;61519;60.050;18.582;2023-10-19T05:30:31;101501.97;;;3.46;61.20
73284;BME280;61519;60.050;18.582;2023-10-19T05:32:57;101512.22;;;3.49;60.95
73284;BME280;61519;60.050;18.582;2023-10-19T05:35:25;101545.41;;;3.58;61.11
73284;BME280;61519;60.050;18.582;2023-10-19T05:37:52;101529.06;;;3.56;61.24
73284;BME280;61519;60.050;18.582;2023-10-19T05:40:17;101535.50;;;3.63;61.36
73284;BME280;61519;60.050;18.582;2023-10-19T05:42:44;101536.41;;;3.51;61.19
73284;BME280;61519;60.050;18.582;2023-10-19T05:45:09;101535.50;;;3.63;61.17
73284;BME280;61519;60.050;18.582;2023-10-19T05:47:38;101535.50;;;3.63;61.35
73284;BME280;61519;60.050;18.582;2023-10-19T05:50:03;101521.22;;;3.56;60.92
73284;BME280;61519;60.050;18.582;2023-10-19T05:52:29;101520.91;;;3.61;61.21
73284;BME280;61519;60.050;18.582;2023-10-19T05:54:54;101506.75;;;3.52;61.15
73284;BME280;61519;60.050;18.582;2023-10-19T05:57:20;101513.19;;;3.59;61.17
73284;BME280;61519;60.050;18.582;2023-10-19T05:59:47;101526.25;;;3.70;61.01
73284;BME280;61519;60.050;18.582;2023-10-19T06:02:13;101517.72;;;3.68;60.88
73284;BME280;61519;60.050;18.582;2023-10-19T06:04:38;101480.06;;;3.48;61.06
73284;BME280;61519;60.050;18.582;2023-10-19T06:07:03;101507.53;;;3.65;61.11
73284;BME280;61519;60.050;18.582;2023-10-19T06:09:28;101511.56;;;3.69;60.89
73284;BME280;61519;60.050;18.582;2023-10-19T06:11:57;101503.94;;;3.66;60.95
73284;BME280;61519;60.050;18.582;2023-10-19T06:14:22;101513.94;;;3.72;60.87
73284;BME280;61519;60.050;18.582;2023-10-19T06:16:47;101494.81;;;3.61;60.52
73284;BME280;61519;60.050;18.582;2023-10-19T06:19:13;101523.91;;;3.78;60.86
73284;BME280;61519;60.050;18.582;2023-10-19T06:21:38;101512.53;;;3.79;61.05
73284;BME280;61519;60.050;18.582;2023-10-19T06:24:05;101527.63;;;3.98;61.13
73284;BME280;61519;60.050;18.582;2023-10-19T06:26:30;101516.13;;;4.00;61.11
73284;BME280;61519;60.050;18.582;2023-10-19T06:28:56;101516.50;;;4.07;60.91
73284;BME280;61519;60.050;18.582;2023-10-19T06:31:24;101497.75;;;4.13;60.92
73284;BME280;61519;60.050;18.582;2023-10-19T06:33:50;101501.44;;;4.21;60.74
73284;BME280;61519;60.050;18.582;2023-10-19T06:36:16;101506.66;;;4.32;60.65
73284;BME280;61519;60.050;18.582;2023-10-19T06:38:41;101522.09;;;4.46;60.74
73284;BME280;61519;60.050;18.582;2023-10-19T06:41:14;101510.34;;;4.41;60.94
73284;BME280;61519;60.050;18.582;2023-10-19T06:43:39;101522.09;;;4.46;60.64
73284;BME280;61519;60.050;18.582;2023-10-19T06:46:05;101535.16;;;4.58;60.68
73284;BME280;61519;60.050;18.582;2023-10-19T06:48:31;101524.94;;;4.55;60.57
73284;BME280;61519;60.050;18.582;2023-10-19T06:50:57;101535.38;;;4.77;60.67
73284;BME280;61519;60.050;18.582;2023-10-19T06:53:22;101516.94;;;4.78;60.57
73284;BME280;61519;60.050;18.582;2023-10-19T06:55:48;101524.63;;;5.02;60.39
73284;BME280;61519;60.050;18.582;2023-10-19T06:58:13;101516.06;;;5.11;60.28
73284;BME280;61519;60.050;18.582;2023-10-19T07:00:45;101534.47;;;5.52;60.14
73284;BME280;61519;60.050;18.582;2023-10-19T07:03:10;101518.63;;;5.54;59.96
73284;BME280;61519;60.050;18.582;2023-10-19T07:05:36;101520.81;;;5.69;59.49
73284;BME280;61519;60.050;18.582;2023-10-19T07:08:01;101537.28;;;6.01;59.46
73284;BME280;61519;60.050;18.582;2023-10-19T07:10:28;101535.13;;;6.06;59.15
73284;BME280;61519;60.050;18.582;2023-10-19T07:12:55;101532.47;;;6.27;59.23
73284;BME280;61519;60.050;18.582;2023-10-19T07:15:21;101533.06;;;6.31;58.94
73284;BME280;61519;60.050;18.582;2023-10-19T07:17:48;101503.41;;;6.30;58.94
73284;BME280;61519;60.050;18.582;2023-10-19T07:20:15;101530.75;;;8.20;56.29
73284;BME280;61519;60.050;18.582;2023-10-19T07:23:01;101521.69;;;9.58;54.46
73284;BME280;61519;60.050;18.582;2023-10-19T07:25:44;101533.19;;;9.22;55.01
73284;BME280;61519;60.050;18.582;2023-10-19T07:28:10;101520.78;;;8.70;55.42
73284;BME280;61519;60.050;18.582;2023-10-19T07:30:35;101540.06;;;8.51;55.52
73284;BME280;61519;60.050;18.582;2023-10-19T07:33:02;101534.03;;;8.78;54.78
73284;BME280;61519;60.050;18.582;2023-10-19T07:35:34;101526.28;;;10.00;53.22
73284;BME280;61519;60.050;18.582;2023-10-19T07:37:59;101519.22;;;10.00;53.21
73284;BME280;61519;60.050;18.582;2023-10-19T07:40:26;101515.19;;;9.70;53.09
73284;BME280;61519;60.050;18.582;2023-10-19T07:42:52;101513.63;;;9.42;52.90
73284;BME280;61519;60.050;18.582;2023-10-19T07:45:19;101522.66;;;10.01;51.87
73284;BME280;61519;60.050;18.582;2023-10-19T07:47:44;101521.25;;;11.31;50.18
73284;BME280;61519;60.050;18.582;2023-10-19T07:50:13;101516.34;;;11.93;49.11
73284;BME280;61519;60.050;18.582;2023-10-19T07:55:09;101535.03;;;11.01;49.76
73284;BME280;61519;60.050;18.582;2023-10-19T07:57:34;101526.19;;;10.35;50.02
73284;BME280;61519;60.050;18.582;2023-10-19T08:00:00;101540.75;;;9.96;50.20
73284;BME280;61519;60.050;18.582;2023-10-19T08:02:25;101508.44;;;9.50;50.50
73284;BME280;61519;60.050;18.582;2023-10-19T08:04:51;101544.56;;;9.40;50.69
73284;BME280;61519;60.050;18.582;2023-10-19T08:07:17;101530.91;;;8.92;50.64
73284;BME280;61519;60.050;18.582;2023-10-19T08:09:43;101537.81;;;8.66;50.92
73284;BME280;61519;60.050;18.582;2023-10-19T08:12:09;101525.44;;;8.49;50.87
73284;BME280;61519;60.050;18.582;2023-10-19T08:14:34;101536.25;;;8.73;50.67
73284;BME280;61519;60.050;18.582;2023-10-19T08:17:00;101524.09;;;9.52;49.68
73284;BME280;61519;60.050;18.582;2023-10-19T08:19:27;101556.88;;;9.57;49.54
73284;BME280;61519;60.050;18.582;2023-10-19T08:21:53;101554.06;;;9.06;49.94
73284;BME280;61519;60.050;18.582;2023-10-19T08:24:18;101565.38;;;8.62;50.02
73284;BME280;61519;60.050;18.582;2023-10-19T08:26:46;101564.53;;;8.25;50.64
73284;BME280;61519;60.050;18.582;2023-10-19T08:29:12;101587.03;;;8.18;51.10
73284;BME280;61519;60.050;18.582;2023-10-19T08:31:42;101572.25;;;8.26;50.65
73284;BME280;61519;60.050;18.582;2023-10-19T08:34:08;101579.78;;;8.58;50.76
73284;BME280;61519;60.050;18.582;2023-10-19T08:36:40;101580.94;;;8.73;50.67
73284;BME280;61519;60.050;18.582;2023-10-19T08:39:09;101572.75;;;8.49;50.75
73284;BME280;61519;60.050;18.582;2023-10-19T08:41:37;101556.88;;;8.41;50.94
73284;BME280;61519;60.050;18.582;2023-10-19T08:44:04;101570.72;;;8.24;51.18
73284;BME280;61519;60.050;18.582;2023-10-19T08:46:37;101552.09;;;8.08;51.29
73284;BME280;61519;60.050;18.582;2023-10-19T08:49:05;101578.06;;;8.20;51.23
73284;BME280;61519;60.050;18.582;2023-10-19T08:51:34;101574.88;;;8.17;51.34
73284;BME280;61519;60.050;18.582;2023-10-19T08:54:01;101570.03;;;8.22;51.32
73284;BME280;61519;60.050;18.582;2023-10-19T08:56:27;101567.53;;;8.30;51.20
73284;BME280;61519;60.050;18.582;2023-10-19T08:58:53;101579.28;;;8.45;50.87
73284;BME280;61519;60.050;18.582;2023-10-19T09:01:19;101576.66;;;8.45;50.64
73284;BME280;61519;60.050;18.582;2023-10-19T09:03:45;101555.38;;;8.19;50.76
73284;BME280;61519;60.050;18.582;2023-10-19T09:06:12;101580.81;;;8.19;50.60
73284;BME280;61519;60.050;18.582;2023-10-19T09:08:39;101588.19;;;8.06;50.56
73284;BME280;61519;60.050;18.582;2023-10-19T09:11:07;101576.16;;;7.93;50.68
73284;BME280;61519;60.050;18.582;2023-10-19T09:13:47;101574.66;;;7.81;50.60
73284;BME280;61519;60.050;18.582;2023-10-19T09:16:14;101586.00;;;7.72;50.52
73284;BME280;61519;60.050;18.582;2023-10-19T09:18:40;101587.66;;;7.73;50.32
73284;BME280;61519;60.050;18.582;2023-10-19T09:21:07;101568.97;;;7.67;49.93
73284;BME280;61519;60.050;18.582;2023-10-19T09:23:33;101565.00;;;7.72;49.92
73284;BME280;61519;60.050;18.582;2023-10-19T09:26:00;101567.34;;;7.75;49.95
73284;BME280;61519;60.050;18.582;2023-10-19T09:28:29;101564.84;;;7.83;49.52
73284;BME280;61519;60.050;18.582;2023-10-19T09:30:55;101572.28;;;8.07;49.25
73284;BME280;61519;60.050;18.582;2023-10-19T09:33:22;101581.66;;;8.19;49.04
73284;BME280;61519;60.050;18.582;2023-10-19T09:35:50;101581.69;;;8.10;48.80
73284;BME280;61519;60.050;18.582;2023-10-19T09:38:19;101610.88;;;7.87;48.99
73284;BME280;61519;60.050;18.582;2023-10-19T09:40:51;101611.00;;;7.57;49.88
73284;BME280;61519;60.050;18.582;2023-10-19T09:43:46;101597.69;;;7.30;50.17
73284;BME280;61519;60.050;18.582;2023-10-19T09:46:15;101592.66;;;7.08;50.48
73284;BME280;61519;60.050;18.582;2023-10-19T09:48:46;101593.34;;;7.00;50.65
73284;BME280;61519;60.050;18.582;2023-10-19T09:51:14;101593.19;;;7.02;50.54
73284;BME280;61519;60.050;18.582;2023-10-19T09:53:41;101581.78;;;7.13;50.78
73284;BME280;61519;60.050;18.582;2023-10-19T09:56:19;101587.75;;;7.43;50.57
73284;BME280;61519;60.050;18.582;2023-10-19T09:58:52;101575.88;;;7.96;50.29
73284;BME280;61519;60.050;18.582;2023-10-19T10:01:18;101565.84;;;11.50;46.86
73284;BME280;61519;60.050;18.582;2023-10-19T10:03:50;101565.69;;;13.71;45.58
73284;BME280;61519;60.050;18.582;2023-10-19T10:07:14;101568.75;;;13.38;45.90
73284;BME280;61519;60.050;18.582;2023-10-19T10:09:17;101587.94;;;12.46;46.94
73284;BME280;61519;60.050;18.582;2023-10-19T10:11:48;101571.09;;;11.42;47.25
73284;BME280;61519;60.050;18.582;2023-10-19T10:14:24;101600.22;;;10.67;47.50
73284;BME280;61519;60.050;18.582;2023-10-19T10:17:01;101611.22;;;9.94;48.02
73284;BME280;61519;60.050;18.582;2023-10-19T10:19:26;101611.97;;;9.33;48.22
73284;BME280;61519;60.050;18.582;2023-10-19T10:22:10;101598.69;;;8.71;48.32
73284;BME280;61519;60.050;18.582;2023-10-19T10:24:46;101592.72;;;8.23;48.69
73284;BME280;61519;60.050;18.582;2023-10-19T10:27:11;101622.59;;;8.02;48.97
73284;BME280;61519;60.050;18.582;2023-10-19T10:29:57;101628.41;;;7.77;48.99
73284;BME280;61519;60.050;18.582;2023-10-19T10:32:46;101615.28;;;7.58;49.02
73284;BME280;61519;60.050;18.582;2023-10-19T10:38:07;101607.81;;;7.44;49.13
73284;BME280;61519;60.050;18.582;2023-10-19T10:40:47;101608.75;;;7.43;48.89
73284;BME280;61519;60.050;18.582;2023-10-19T10:43:14;101607.41;;;7.49;48.67
73284;BME280;61519;60.050;18.582;2023-10-19T10:45:49;101601.03;;;7.51;48.79
73284;BME280;61519;60.050;18.582;2023-10-19T10:48:17;101612.22;;;7.63;48.71
73284;BME280;61519;60.050;18.582;2023-10-19T10:50:44;101610.72;;;7.60;48.71
73284;BME280;61519;60.050;18.582;2023-10-19T10:53:12;101598.41;;;7.51;48.51
73284;BME280;61519;60.050;18.582;2023-10-19T10:55:38;101584.72;;;7.38;48.58
73284;BME280;61519;60.050;18.582;2023-10-19T10:58:06;101575.47;;;7.25;48.31
73284;BME280;61519;60.050;18.582;2023-10-19T11:00:32;101609.28;;;7.37;48.50
73284;BME280;61519;60.050;18.582;2023-10-19T11:03:08;101603.78;;;7.40;48.41
73284;BME280;61519;60.050;18.582;2023-10-19T11:05:35;101589.16;;;7.47;48.08
73284;BME280;61519;60.050;18.582;2023-10-19T11:08:12;101605.38;;;8.56;46.58
73284;BME280;61519;60.050;18.582;2023-10-19T11:10:47;101589.84;;;8.72;46.85
73284;BME280;61519;60.050;18.582;2023-10-19T11:13:17;101603.91;;;8.80;46.84
73284;BME280;61519;60.050;18.582;2023-10-19T11:18:32;101588.72;;;8.74;46.98
73284;BME280;61519;60.050;18.582;2023-10-19T11:21:00;101589.31;;;8.68;46.94
73284;BME280;61519;60.050;18.582;2023-10-19T11:23:36;101584.78;;;8.88;46.63
73284;BME280;61519;60.050;18.582;2023-10-19T11:26:01;101572.00;;;9.38;45.93
73284;BME280;61519;60.050;18.582;2023-10-19T11:28:27;101592.41;;;9.53;45.97
73284;BME280;61519;60.050;18.582;2023-10-19T11:30:53;101591.94;;;9.40;46.06
73284;BME280;61519;60.050;18.582;2023-10-19T11:33:19;101595.19;;;9.07;46.08
73284;BME280;61519;60.050;18.582;2023-10-19T11:35:49;101622.56;;;8.87;46.54
73284;BME280;61519;60.050;18.582;2023-10-19T11:38:15;101635.56;;;8.52;46.67
73284;BME280;61519;60.050;18.582;2023-10-19T11:40:40;101635.31;;;8.17;46.80
73284;BME280;61519;60.050;18.582;2023-10-19T11:43:05;101617.78;;;7.69;47.39
73284;BME280;61519;60.050;18.582;2023-10-19T11:45:31;101621.78;;;7.54;47.65
73284;BME280;61519;60.050;18.582;2023-10-19T11:47:56;101623.94;;;7.40;47.61
73284;BME280;61519;60.050;18.582;2023-10-19T11:50:22;101618.00;;;7.28;48.20
73284;BME280;61519;60.050;18.582;2023-10-19T11:52:47;101612.88;;;7.17;48.26
73284;BME280;61519;60.050;18.582;2023-10-19T11:55:13;101607.09;;;7.23;48.13
73284;BME280;61519;60.050;18.582;2023-10-19T11:57:40;101614.28;;;7.40;48.32
73284;BME280;61519;60.050;18.582;2023-10-19T12:00:06;101592.47;;;7.40;48.17
73284;BME280;61519;60.050;18.582;2023-10-19T12:02:35;101595.78;;;7.51;48.08
73284;BME280;61519;60.050;18.582;2023-10-19T12:05:03;101604.34;;;7.63;48.04
73284;BME280;61519;60.050;18.582;2023-10-19T12:07:29;101571.34;;;7.60;48.09
73284;BME280;61519;60.050;18.582;2023-10-19T12:09:56;101587.09;;;7.79;47.86
73284;BME280;61519;60.050;18.582;2023-10-19T12:12:23;101577.00;;;8.04;47.83
73284;BME280;61519;60.050;18.582;2023-10-19T12:14:48;101587.72;;;8.39;47.65
73284;BME280;61519;60.050;18.582;2023-10-19T12:17:15;101591.28;;;8.57;47.78
73284;BME280;61519;60.050;18.582;2023-10-19T12:19:40;101582.06;;;8.34;47.96
73284;BME280;61519;60.050;18.582;2023-10-19T12:22:06;101599.91;;;8.21;48.31
73284;BME280;61519;60.050;18.582;2023-10-19T12:24:33;101600.91;;;8.00;48.36
73284;BME280;61519;60.050;18.582;2023-10-19T12:26:59;101584.75;;;7.67;48.46
73284;BME280;61519;60.050;18.582;2023-10-19T12:29:24;101585.28;;;7.51;48.83
73284;BME280;61519;60.050;18.582;2023-10-19T12:31:50;101607.41;;;7.58;48.85
73284;BME280;61519;60.050;18.582;2023-10-19T12:34:16;101565.09;;;7.23;48.82
73284;BME280;61519;60.050;18.582;2023-10-19T12:36:42;101590.22;;;7.35;49.06
73284;BME280;61519;60.050;18.582;2023-10-19T12:39:10;101607.25;;;7.41;49.06
73284;BME280;61519;60.050;18.582;2023-10-19T12:41:40;101597.69;;;7.30;48.94
73284;BME280;61519;60.050;18.582;2023-10-19T12:44:06;101576.41;;;7.24;49.07
73284;BME280;61519;60.050;18.582;2023-10-19T12:46:34;101601.03;;;7.42;48.85
73284;BME280;61519;60.050;18.582;2023-10-19T12:49:04;101589.28;;;7.36;49.01
73284;BME280;61519;60.050;18.582;2023-10-19T12:51:33;101589.72;;;7.60;48.87
73284;BME280;61519;60.050;18.582;2023-10-19T12:53:59;101604.38;;;7.72;49.06
73284;BME280;61519;60.050;18.582;2023-10-19T12:56:28;101578.25;;;7.42;49.22
73284;BME280;61519;60.050;18.582;2023-10-19T12:58:54;101585.28;;;7.32;49.80
73284;BME280;61519;60.050;18.582;2023-10-19T13:01:20;101582.88;;;7.20;49.80
73284;BME280;61519;60.050;18.582;2023-10-19T13:03:47;101557.72;;;6.98;50.08
73284;BME280;61519;60.050;18.582;2023-10-19T13:06:13;101576.50;;;7.03;50.23
73284;BME280;61519;60.050;18.582;2023-10-19T13:08:39;101572.19;;;6.92;50.45